Time;durP1;ratioP1;P1;durP2;ratioP2;P2;SDS_P1;SDS_P2;PMS_P1;PMS_P2;Temp;Humidity;BMP_temperature;BMP_pressure;BME280_temperature;BME280_humidity;BME280_pressure;Samples;Min_cycle;Max_cycle;Signal;HPM_P1;HPM_P2
2022/06/07 00:01:11;;;;;;;;;1.00;1.00;;;;;-142.59;100.00;56100.38;5072724;28;49599;-68
2022/06/07 00:03:36;;;;;;;;;4.00;2.00;;;;;-142.59;100.00;56100.38;5073395;28;49621;-69
2022/06/07 00:06:02;;;;;;;;;1.00;1.00;;;;;-142.59;100.00;56100.38;5073082;28;49728;-69
2022/06/07 00:08:30;;;;;;;;;1.00;1.00;;;;;-142.59;100.00;56100.38;5073017;28;49743;-68
2022/06/07 00:10:55;;;;;;;;;0.75;0.75;;;;;-142.59;100.00;56100.38;5072999;28;49503;-68
2022/06/07 00:13:21;;;;;;;;;2.00;2.00;;;;;-142.59;100.00;56100.38;5073353;28;49649;-69
2022/06/07 00:15:46;;;;;;;;;3.25;1.25;;;;;-142.59;100.00;56100.38;5072394;28;50558;-68
2022/06/07 00:18:12;;;;;;;;;1.75;1.75;;;;;-142.59;100.00;56100.38;5073637;27;49640;-69
2022/06/07 00:20:39;;;;;;;;;1.00;1.00;;;;;-142.59;100.00;56100.38;5076143;27;49781;-68
2022/06/07 00:23:08;;;;;;;;;1.75;1.00;;;;;-142.59;100.00;56100.38;5076071;28;51061;-70
2022/06/07 00:25:33;;;;;;;;;2.00;2.00;;;;;-142.59;100.00;56100.38;5076008;28;50622;-68
2022/06/07 00:27:59;;;;;;;;;1.00;1.00;;;;;-142.59;100.00;56100.38;5076609;28;49653;-69
2022/06/07 00:30:25;;;;;;;;;1.75;1.00;;;;;-142.59;100.00;56100.38;5075882;28;49516;-69
2022/06/07 00:32:51;;;;;;;;;2.25;1.00;;;;;-142.59;100.00;56100.38;5076363;28;50110;-69
2022/06/07 00:35:16;;;;;;;;;1.00;1.00;;;;;-142.59;100.00;56100.38;5076097;28;50508;-69
2022/06/07 00:37:42;;;;;;;;;0.00;0.00;;;;;-142.59;100.00;56100.38;5058091;28;49788;-68
2022/06/07 00:40:08;;;;;;;;;0.75;0.75;;;;;-142.59;100.00;56100.38;5075476;27;49640;-68
2022/06/07 00:42:34;;;;;;;;;2.00;1.00;;;;;-142.59;100.00;56100.38;5075468;28;49777;-69
2022/06/07 00:45:00;;;;;;;;;1.50;1.50;;;;;-142.59;100.00;56100.38;5076061;28;49712;-68
2022/06/07 00:47:27;;;;;;;;;2.25;2.25;;;;;-142.59;100.00;56100.38;5076157;27;49746;-68
2022/06/07 00:50:04;;;;;;;;;1.00;1.00;;;;;-142.59;100.00;56100.38;5076164;28;49838;-69
2022/06/07 00:52:33;;;;;;;;;1.50;1.50;;;;;-142.59;100.00;56100.38;5055738;28;49707;-68
2022/06/07 00:54:59;;;;;;;;;1.00;1.00;;;;;-142.59;100.00;56100.38;5059800;28;50445;-68
2022/06/07 00:57:26;;;;;;;;;2.00;2.00;;;;;-142.59;100.00;56100.38;5075699;28;49691;-68
2022/06/07 00:59:51;;;;;;;;;2.00;1.00;;;;;-142.59;100.00;56100.38;5075130;28;49717;-68
2022/06/07 01:02:18;;;;;;;;;2.00;2.00;;;;;-142.59;100.00;56100.38;5075958;28;49678;-70
2022/06/07 01:04:43;;;;;;;;;6.00;1.50;;;;;-142.59;100.00;56100.38;5075726;28;50867;-68
2022/06/07 01:12:37;;;;;;;;;2.00;2.00;;;;;-142.59;100.00;56100.38;5075051;28;49637;-68
2022/06/07 01:15:03;;;;;;;;;1.00;1.00;;;;;-142.59;100.00;56100.38;5074084;28;49743;-68
2022/06/07 01:17:28;;;;;;;;;1.50;1.50;;;;;-142.59;100.00;56100.38;5083270;27;49816;-67
2022/06/07 01:19:54;;;;;;;;;1.00;1.00;;;;;-142.59;100.00;56100.38;5075792;28;49725;-68
2022/06/07 01:22:20;;;;;;;;;1.50;1.50;;;;;-142.59;100.00;56100.38;5075667;28;49506;-68
2022/06/07 01:24:47;;;;;;;;;1.00;1.00;;;;;-142.59;100.00;56100.38;5075417;28;49872;-68
2022/06/07 01:27:12;;;;;;;;;0.50;0.50;;;;;-142.59;100.00;56100.38;5075554;28;49804;-68
2022/06/07 01:29:39;;;;;;;;;2.00;1.00;;;;;-142.59;100.00;56100.38;5074587;28;49683;-68
2022/06/07 01:32:05;;;;;;;;;1.50;1.50;;;;;-142.59;100.00;56100.38;5075713;28;49598;-68
2022/06/07 01:34:31;;;;;;;;;2.50;2.50;;;;;-142.59;100.00;56100.38;5075312;28;50264;-68
2022/06/07 01:36:58;;;;;;;;;1.00;1.00;;;;;-142.59;100.00;56100.38;5075285;27;49705;-68
2022/06/07 01:42:09;;;;;;;;;1.00;1.00;;;;;-142.59;100.00;56100.38;5075460;28;49788;-68
2022/06/07 01:44:39;;;;;;;;;1.00;1.00;;;;;-142.59;100.00;56100.38;5075070;28;50642;-69
2022/06/07 01:47:07;;;;;;;;;1.00;1.00;;;;;-142.59;100.00;56100.38;5075273;28;49742;-68
2022/06/07 01:49:33;;;;;;;;;1.50;1.50;;;;;-142.59;100.00;56100.38;5075105;28;49520;-68
2022/06/07 01:51:59;;;;;;;;;2.00;2.00;;;;;-142.59;100.00;56100.38;5074902;28;49800;-68
2022/06/07 01:54:24;;;;;;;;;1.00;1.00;;;;;-142.59;100.00;56100.38;5075030;28;49584;-68
2022/06/07 01:56:49;;;;;;;;;1.25;1.25;;;;;-142.59;100.00;56100.38;5075187;28;49712;-68
2022/06/07 01:59:16;;;;;;;;;1.00;1.00;;;;;-142.59;100.00;56100.38;5075219;28;50120;-68
2022/06/07 02:01:42;;;;;;;;;2.00;2.00;;;;;-142.59;100.00;56100.38;5075269;28;49632;-68
2022/06/07 02:04:08;;;;;;;;;2.00;2.00;;;;;-142.59;100.00;56100.38;5074566;28;49822;-69
2022/06/07 02:06:34;;;;;;;;;1.50;1.50;;;;;-142.59;100.00;56100.38;5074800;28;49783;-68
2022/06/07 02:08:59;;;;;;;;;2.75;2.00;;;;;-142.59;100.00;56100.38;5075124;28;49605;-69
2022/06/07 02:11:26;;;;;;;;;1.00;1.00;;;;;-142.59;100.00;56100.38;5075015;28;49749;-69
2022/06/07 02:13:52;;;;;;;;;2.50;2.50;;;;;-142.59;100.00;56100.38;5074786;28;49747;-68
2022/06/07 02:16:19;;;;;;;;;2.00;2.00;;;;;-142.59;100.00;56100.38;5074721;28;49664;-69
2022/06/07 02:18:46;;;;;;;;;1.00;1.00;;;;;-142.59;100.00;56100.38;5074781;28;49784;-68
2022/06/07 02:21:12;;;;;;;;;1.50;1.50;;;;;-142.59;100.00;56100.38;5074756;28;49917;-68
2022/06/07 02:23:38;;;;;;;;;3.00;1.75;;;;;-142.59;100.00;56100.38;5074242;28;49632;-69
2022/06/07 02:26:17;;;;;;;;;3.25;2.00;;;;;-142.59;100.00;56100.38;5074711;28;50011;-69
2022/06/07 02:28:48;;;;;;;;;1.75;1.75;;;;;-142.59;100.00;56100.38;5074709;28;49558;-69
2022/06/07 02:31:13;;;;;;;;;2.00;2.00;;;;;-142.59;100.00;56100.38;5074456;28;49523;-69
2022/06/07 02:33:39;;;;;;;;;2.00;1.50;;;;;-142.59;100.00;56100.38;5074221;28;50509;-69
2022/06/07 02:36:06;;;;;;;;;1.00;1.00;;;;;-142.59;100.00;56100.38;5074458;28;49712;-73
2022/06/07 02:38:32;;;;;;;;;5.00;4.00;;;;;-142.59;100.00;56100.38;5074201;28;50028;-71
2022/06/07 02:40:58;;;;;;;;;2.00;2.00;;;;;-142.59;100.00;56100.38;5074382;28;49802;-74
2022/06/07 02:43:23;;;;;;;;;2.00;1.25;;;;;-142.59;100.00;56100.38;5074313;28;50103;-70
2022/06/07 02:45:48;;;;;;;;;2.00;1.00;;;;;-142.59;100.00;56100.38;5074414;28;49748;-69
2022/06/07 02:48:14;;;;;;;;;3.25;3.00;;;;;-142.59;100.00;56100.38;5074404;28;49559;-70
2022/06/07 02:50:40;;;;;;;;;2.50;1.00;;;;;-142.59;100.00;56100.38;5074341;28;49897;-69
2022/06/07 02:53:06;;;;;;;;;2.50;2.00;;;;;-142.59;100.00;56100.38;5073761;28;49750;-70
2022/06/07 02:55:31;;;;;;;;;3.50;3.00;;;;;-142.59;100.00;56100.38;5074123;28;49655;-69
2022/06/07 02:57:57;;;;;;;;;2.00;1.25;;;;;-142.59;100.00;56100.38;5074232;28;50395;-72
2022/06/07 03:00:22;;;;;;;;;1.75;1.25;;;;;-142.59;100.00;56100.38;5074338;27;49617;-72
2022/06/07 03:02:48;;;;;;;;;1.00;1.00;;;;;-142.59;100.00;56100.38;5073770;28;50576;-69
2022/06/07 03:05:14;;;;;;;;;1.00;1.00;;;;;-142.59;100.00;56100.38;5055155;28;49811;-69
2022/06/07 03:07:41;;;;;;;;;2.25;2.25;;;;;-142.59;100.00;56100.38;5074046;28;49713;-71
2022/06/07 03:10:08;;;;;;;;;2.00;2.00;;;;;-142.59;100.00;56100.38;5074190;28;49992;-68
2022/06/07 03:12:34;;;;;;;;;2.25;2.25;;;;;-142.59;100.00;56100.38;5073904;28;50497;-69
2022/06/07 03:15:00;;;;;;;;;1.50;1.50;;;;;-142.59;100.00;56100.38;5073287;28;49826;-69
2022/06/07 03:17:25;;;;;;;;;1.00;1.00;;;;;-142.59;100.00;56100.38;5073582;28;49768;-72
2022/06/07 03:19:51;;;;;;;;;2.00;2.00;;;;;-142.59;100.00;56100.38;5074102;28;49863;-73
2022/06/07 03:22:18;;;;;;;;;2.75;1.75;;;;;-142.59;100.00;56100.38;5073449;28;50453;-70
2022/06/07 03:24:43;;;;;;;;;2.00;2.00;;;;;-142.59;100.00;56100.38;5073485;28;49752;-68
2022/06/07 03:27:09;;;;;;;;;3.00;3.00;;;;;-142.59;100.00;56100.38;5073941;28;49952;-72
2022/06/07 03:29:34;;;;;;;;;1.75;1.75;;;;;-142.59;100.00;56100.38;5073784;28;49706;-69
2022/06/07 03:31:59;;;;;;;;;3.50;3.50;;;;;-142.59;100.00;56100.38;5073494;28;49624;-69
2022/06/07 03:34:25;;;;;;;;;2.00;2.00;;;;;-142.59;100.00;56100.38;5073378;28;49653;-71
2022/06/07 03:36:50;;;;;;;;;2.00;2.00;;;;;-142.59;100.00;56100.38;5073407;28;49691;-70
2022/06/07 03:39:16;;;;;;;;;2.00;2.00;;;;;-142.59;100.00;56100.38;5073925;28;49763;-69
2022/06/07 03:41:41;;;;;;;;;3.25;3.00;;;;;-142.59;100.00;56100.38;5073485;28;50694;-69
2022/06/07 03:44:06;;;;;;;;;5.75;3.00;;;;;-142.59;100.00;56100.38;5073494;28;49897;-73
2022/06/07 03:46:35;;;;;;;;;2.00;2.00;;;;;-142.59;100.00;56100.38;5073757;28;49702;-73
2022/06/07 03:49:01;;;;;;;;;1.00;1.00;;;;;-142.59;100.00;56100.38;5073284;27;49750;-73
2022/06/07 03:51:29;;;;;;;;;2.00;2.00;;;;;-142.59;100.00;56100.38;5072930;28;50608;-68
2022/06/07 03:53:56;;;;;;;;;3.00;3.00;;;;;-142.59;100.00;56100.38;5074796;28;49748;-69
2022/06/07 03:56:23;;;;;;;;;2.00;1.75;;;;;-142.59;100.00;56100.38;5076996;28;49577;-73
2022/06/07 03:58:49;;;;;;;;;1.00;1.00;;;;;-142.59;100.00;56100.38;5077148;28;49883;-69
2022/06/07 04:01:18;;;;;;;;;2.75;2.75;;;;;-142.59;100.00;56100.38;5076700;28;50330;-72
2022/06/07 04:03:45;;;;;;;;;3.00;2.50;;;;;-142.59;100.00;56100.38;5076470;28;49570;-69
2022/06/07 04:06:28;;;;;;;;;3.00;3.00;;;;;-142.59;100.00;56100.38;5076799;28;49798;-72
2022/06/07 04:08:54;;;;;;;;;3.00;1.50;;;;;-142.59;100.00;56100.38;5077115;27;49653;-69
2022/06/07 04:11:21;;;;;;;;;2.00;2.00;;;;;-142.59;100.00;56100.38;5076414;28;50933;-68
2022/06/07 04:13:49;;;;;;;;;2.00;2.00;;;;;-142.59;100.00;56100.38;5076626;27;49874;-70
2022/06/07 04:16:17;;;;;;;;;1.00;1.00;;;;;-142.59;100.00;56100.38;5075908;28;49663;-71
2022/06/07 04:18:43;;;;;;;;;1.75;1.75;;;;;-142.59;100.00;56100.38;5076715;28;49834;-69
2022/06/07 04:21:09;;;;;;;;;2.00;2.00;;;;;-142.59;100.00;56100.38;5076439;27;49782;-72
2022/06/07 04:23:35;;;;;;;;;1.00;1.00;;;;;-142.59;100.00;56100.38;5076021;27;49746;-71
2022/06/07 04:26:09;;;;;;;;;1.50;1.50;;;;;-142.59;100.00;56100.38;5076519;28;49671;-73
2022/06/07 04:28:35;;;;;;;;;0.75;0.75;;;;;-142.59;100.00;56100.38;5076661;28;49836;-69
2022/06/07 04:31:01;;;;;;;;;2.75;2.00;;;;;-142.59;100.00;56100.38;5075891;28;49761;-74
2022/06/07 04:33:26;;;;;;;;;2.00;2.00;;;;;-142.59;100.00;56100.38;5076445;28;49785;-69
2022/06/07 04:35:52;;;;;;;;;1.75;1.75;;;;;-142.59;100.00;56100.38;5076334;28;49807;-68
2022/06/07 04:38:17;;;;;;;;;1.75;1.75;;;;;-142.59;100.00;56100.38;5076110;28;49924;-69
2022/06/07 04:40:43;;;;;;;;;2.50;2.50;;;;;-142.59;100.00;56100.38;5076145;28;56792;-72
2022/06/07 04:43:10;;;;;;;;;2.25;2.00;;;;;-142.59;100.00;56100.38;5075985;28;49811;-71
2022/06/07 04:45:37;;;;;;;;;2.50;2.50;;;;;-142.59;100.00;56100.38;5075984;28;49861;-71
2022/06/07 04:48:07;;;;;;;;;2.00;1.00;;;;;-142.59;100.00;56100.38;5076327;28;49696;-71
2022/06/07 04:50:33;;;;;;;;;2.00;2.00;;;;;-142.59;100.00;56100.38;5075464;28;50917;-72
2022/06/07 04:52:58;;;;;;;;;2.00;2.00;;;;;-142.59;100.00;56100.38;5075436;28;49655;-69
2022/06/07 04:55:23;;;;;;;;;1.00;1.00;;;;;-142.59;100.00;56100.38;5075908;28;49708;-69
2022/06/07 04:57:49;;;;;;;;;1.00;1.00;;;;;-142.59;100.00;56100.38;5076326;28;49867;-70
2022/06/07 05:00:15;;;;;;;;;2.25;2.25;;;;;-142.59;100.00;56100.38;5057992;28;52749;-67
2022/06/07 05:02:45;;;;;;;;;1.25;1.25;;;;;-142.59;100.00;56100.38;5075623;28;49731;-69
2022/06/07 05:05:12;;;;;;;;;1.25;1.25;;;;;-142.59;100.00;56100.38;5074305;27;49755;-70
2022/06/07 05:07:38;;;;;;;;;1.50;1.50;;;;;-142.59;100.00;56100.38;5075404;28;50088;-70
2022/06/07 05:10:06;;;;;;;;;2.00;2.00;;;;;-142.59;100.00;56100.38;5075643;27;51315;-69
2022/06/07 05:12:32;;;;;;;;;2.00;2.00;;;;;-142.59;100.00;56100.38;5075629;28;49666;-69
2022/06/07 05:14:58;;;;;;;;;2.50;1.50;;;;;-142.59;100.00;56100.38;5075156;28;49797;-69
2022/06/07 05:17:24;;;;;;;;;1.00;1.00;;;;;-142.59;100.00;56100.38;5075725;28;49700;-68
2022/06/07 05:19:49;;;;;;;;;1.75;1.75;;;;;-142.59;100.00;56100.38;5075346;27;50448;-68
2022/06/07 05:22:15;;;;;;;;;1.75;1.75;;;;;-142.59;100.00;56100.38;5075444;28;49694;-73
2022/06/07 05:24:40;;;;;;;;;2.25;2.25;;;;;-142.59;100.00;56100.38;5075849;27;49725;-69
2022/06/07 05:27:08;;;;;;;;;5.00;3.00;;;;;-142.59;100.00;56100.38;5075555;28;49954;-83
2022/06/07 05:29:54;;;;;;;;;5.00;3.75;;;;;-142.59;100.00;56100.38;5075609;27;50495;-79
2022/06/07 05:32:21;;;;;;;;;1.00;1.00;;;;;-142.59;100.00;56100.38;5075112;28;49755;-74
2022/06/07 05:34:47;;;;;;;;;3.50;3.00;;;;;-142.59;100.00;56100.38;5075221;28;49665;-75
2022/06/07 05:37:15;;;;;;;;;2.00;1.00;;;;;-142.59;100.00;56100.38;5074785;28;49870;-73
2022/06/07 05:39:40;;;;;;;;;2.00;2.00;;;;;-142.59;100.00;56100.38;5075208;28;50471;-74
2022/06/07 05:42:08;;;;;;;;;3.75;3.00;;;;;-142.59;100.00;56100.38;5075209;28;49756;-74
2022/06/07 05:44:34;;;;;;;;;2.00;2.00;;;;;-142.59;100.00;56100.38;5075409;28;49695;-74
2022/06/07 05:47:00;;;;;;;;;1.50;1.50;;;;;-142.59;100.00;56100.38;5075688;28;49725;-75
2022/06/07 05:49:26;;;;;;;;;3.50;2.00;;;;;-142.59;100.00;56100.38;5075189;28;49809;-78
2022/06/07 05:51:51;;;;;;;;;3.75;3.75;;;;;-142.59;100.00;56100.38;5074695;27;49581;-77
2022/06/07 05:54:17;;;;;;;;;3.00;3.00;;;;;-142.59;100.00;56100.38;5076756;27;49591;-75
2022/06/07 05:56:42;;;;;;;;;0.00;0.00;;;;;-142.59;100.00;56100.38;5075536;28;49631;-74
2022/06/07 05:59:08;;;;;;;;;3.75;2.50;;;;;-142.59;100.00;56100.38;5074971;28;49664;-73
2022/06/07 06:01:34;;;;;;;;;2.75;2.75;;;;;-142.59;100.00;56100.38;5073167;28;49854;-70
2022/06/07 06:04:03;;;;;;;;;1.25;1.00;;;;;-142.59;100.00;56100.38;5074811;27;49844;-76
2022/06/07 06:06:28;;;;;;;;;2.00;1.00;;;;;-142.59;100.00;56100.38;5075018;28;50080;-76
2022/06/07 06:11:37;;;;;;;;;0.00;0.00;;;;;-142.59;100.00;56100.38;5074553;27;49755;-77
2022/06/07 06:14:03;;;;;;;;;2.25;2.25;;;;;-142.59;100.00;56100.38;5074904;28;49607;-74
2022/06/07 06:16:30;;;;;;;;;1.00;1.00;;;;;-142.59;100.00;56100.38;5073752;28;49788;-68
2022/06/07 06:18:58;;;;;;;;;3.25;1.75;;;;;-142.59;100.00;56100.38;5074647;28;50614;-68
2022/06/07 06:21:26;;;;;;;;;1.75;1.00;;;;;-142.59;100.00;56100.38;5074430;28;49621;-69
2022/06/07 06:23:52;;;;;;;;;2.00;1.25;;;;;-142.59;100.00;56100.38;5074347;28;49569;-68
2022/06/07 06:26:19;;;;;;;;;1.75;1.75;;;;;-142.59;100.00;56100.38;5074337;28;49779;-69
2022/06/07 06:28:45;;;;;;;;;1.50;1.50;;;;;-142.59;100.00;56100.38;5074238;28;50581;-70
2022/06/07 06:31:12;;;;;;;;;2.00;1.75;;;;;-142.59;100.00;56100.38;5074321;28;49785;-75
2022/06/07 06:33:46;;;;;;;;;1.00;1.00;;;;;-142.59;100.00;56100.38;5074428;27;49478;-83
2022/06/07 06:36:14;;;;;;;;;2.00;2.00;;;;;-142.59;100.00;56100.38;5074193;27;49746;-72
2022/06/07 06:38:40;;;;;;;;;1.75;1.00;;;;;-142.59;100.00;56100.38;5074006;27;50498;-71
2022/06/07 06:41:15;;;;;;;;;1.00;1.00;;;;;-142.59;100.00;56100.38;5074439;27;49732;-74
2022/06/07 06:43:42;;;;;;;;;1.00;1.00;;;;;-142.59;100.00;56100.38;5074297;28;49727;-74
2022/06/07 06:46:10;;;;;;;;;1.50;1.50;;;;;-142.59;100.00;56100.38;5074124;28;49856;-76
2022/06/07 06:48:36;;;;;;;;;4.00;4.00;;;;;-142.59;100.00;56100.38;5063347;28;49743;-73
2022/06/07 06:51:05;;;;;;;;;0.25;0.25;;;;;-142.59;100.00;56100.38;5074190;28;49657;-74
2022/06/07 06:53:33;;;;;;;;;1.00;1.00;;;;;-142.59;100.00;56100.38;5073112;27;49961;-75
2022/06/07 06:55:59;;;;;;;;;1.50;1.00;;;;;-142.59;100.00;56100.38;5074173;28;49685;-79
2022/06/07 06:58:26;;;;;;;;;0.75;0.75;;;;;-142.59;100.00;56100.38;5090408;27;52137;-74
2022/06/07 07:01:06;;;;;;;;;0.00;0.00;;;;;-142.59;100.00;56100.38;5073825;28;49683;-73
2022/06/07 07:03:33;;;;;;;;;1.00;1.00;;;;;-142.59;100.00;56100.38;5083336;27;49856;-72
2022/06/07 07:06:00;;;;;;;;;1.00;1.00;;;;;-142.59;100.00;56100.38;5094328;27;49653;-73
2022/06/07 07:08:26;;;;;;;;;1.25;1.25;;;;;-142.59;100.00;56100.38;5093995;27;50868;-74
2022/06/07 07:11:03;;;;;;;;;0.00;0.00;;;;;-142.59;100.00;56100.38;5088058;27;49914;-75
2022/06/07 07:13:31;;;;;;;;;2.50;1.50;;;;;-142.59;100.00;56100.38;5071517;27;49712;-74
2022/06/07 07:15:57;;;;;;;;;3.00;2.00;;;;;-142.59;100.00;56100.38;5074105;28;49679;-72
2022/06/07 07:18:24;;;;;;;;;0.00;0.00;;;;;-142.59;100.00;56100.38;5073571;28;49790;-73
2022/06/07 07:20:50;;;;;;;;;0.50;0.50;;;;;-142.59;100.00;56100.38;5073886;27;49718;-73
2022/06/07 07:23:16;;;;;;;;;1.00;1.00;;;;;-142.59;100.00;56100.38;5073440;28;49602;-73
2022/06/07 07:25:41;;;;;;;;;0.50;0.50;;;;;-142.59;100.00;56100.38;5074079;28;50008;-73
2022/06/07 07:28:07;;;;;;;;;1.00;1.00;;;;;-142.59;100.00;56100.38;5072662;28;50495;-72
2022/06/07 07:30:32;;;;;;;;;0.75;0.75;;;;;-142.59;100.00;56100.38;5073409;28;50046;-73
2022/06/07 07:32:57;;;;;;;;;0.50;0.50;;;;;-142.59;100.00;56100.38;5073529;28;49508;-74
2022/06/07 07:35:23;;;;;;;;;0.00;0.00;;;;;-142.59;100.00;56100.38;5073935;28;49572;-73
2022/06/07 07:37:49;;;;;;;;;0.00;0.00;;;;;-142.59;100.00;56100.38;5075853;27;50601;-73
2022/06/07 07:40:14;;;;;;;;;1.00;1.00;;;;;-142.59;100.00;56100.38;5072641;28;53017;-73
2022/06/07 07:42:43;;;;;;;;;0.00;0.00;;;;;-142.59;100.00;56100.38;5073679;28;49699;-72
2022/06/07 07:45:10;;;;;;;;;1.00;1.00;;;;;-142.59;100.00;56100.38;5073661;28;49554;-74
2022/06/07 07:47:36;;;;;;;;;0.75;0.75;;;;;-142.59;100.00;56100.38;5073221;28;49728;-71
2022/06/07 07:50:01;;;;;;;;;0.00;0.00;;;;;-142.59;100.00;56100.38;5073131;28;49698;-77
2022/06/07 07:52:27;;;;;;;;;1.00;1.00;;;;;-142.59;100.00;56100.38;5071928;28;49791;-75
2022/06/07 07:54:52;;;;;;;;;0.00;0.00;;;;;-142.59;100.00;56100.38;5073426;28;49706;-74
2022/06/07 07:57:18;;;;;;;;;0.00;0.00;;;;;-142.59;100.00;56100.38;5073342;28;50262;-81
2022/06/07 07:59:43;;;;;;;;;0.00;0.00;;;;;-142.59;100.00;56100.38;5073547;28;49752;-75
2022/06/07 08:02:20;;;;;;;;;1.00;1.00;;;;;-142.59;100.00;56100.38;5073980;28;49745;-78
2022/06/07 08:04:46;;;;;;;;;1.00;1.00;;;;;-142.59;100.00;56100.38;5074164;28;49909;-77
2022/06/07 08:07:12;;;;;;;;;1.00;1.00;;;;;-142.59;100.00;56100.38;5054770;28;51072;-77
2022/06/07 08:09:38;;;;;;;;;0.75;0.75;;;;;-142.59;100.00;56100.38;5072670;28;49632;-74
2022/06/07 08:12:06;;;;;;;;;2.00;2.00;;;;;-142.59;100.00;56100.38;5073101;28;49520;-74
2022/06/07 08:14:33;;;;;;;;;1.00;1.00;;;;;-142.59;100.00;56100.38;5073363;27;49546;-71
2022/06/07 08:16:58;;;;;;;;;0.50;0.50;;;;;-142.59;100.00;56100.38;5072813;28;49824;-68
2022/06/07 08:19:24;;;;;;;;;0.50;0.50;;;;;-142.59;100.00;56100.38;5073104;28;49803;-70
2022/06/07 08:21:50;;;;;;;;;0.75;0.75;;;;;-142.59;100.00;56100.38;5073236;27;49771;-69
2022/06/07 08:24:17;;;;;;;;;1.00;1.00;;;;;-142.59;100.00;56100.38;5072688;27;49735;-68
2022/06/07 08:26:42;;;;;;;;;2.75;1.00;;;;;-142.59;100.00;56100.38;5060520;28;49819;-75
2022/06/07 08:29:08;;;;;;;;;1.00;1.00;;;;;-142.59;100.00;56100.38;5068110;28;49898;-68
2022/06/07 08:31:34;;;;;;;;;1.00;1.00;;;;;-142.59;100.00;56100.38;5072832;28;49550;-67
2022/06/07 08:39:28;;;;;;;;;0.00;0.00;;;;;-142.59;100.00;56100.38;5073404;28;49818;-71
2022/06/07 08:42:16;;;;;;;;;0.50;0.50;;;;;-142.59;100.00;56100.38;5076523;27;49780;-67
2022/06/07 08:44:45;;;;;;;;;2.00;1.00;;;;;-142.59;100.00;56100.38;5076443;28;49518;-70
2022/06/07 08:47:31;;;;;;;;;1.00;1.00;;;;;-142.59;100.00;56100.38;5075863;28;49627;-67
2022/06/07 08:49:59;;;;;;;;;1.00;1.00;;;;;-142.59;100.00;56100.38;5075965;28;49768;-67
2022/06/07 08:52:30;;;;;;;;;0.75;0.75;;;;;-142.59;100.00;56100.38;5076265;28;49745;-67
2022/06/07 08:55:01;;;;;;;;;0.25;0.25;;;;;-142.59;100.00;56100.38;5076030;28;49680;-68
2022/06/07 08:57:37;;;;;;;;;3.00;1.50;;;;;-142.59;100.00;56100.38;5075883;28;50529;-67
2022/06/07 09:00:14;;;;;;;;;1.00;1.00;;;;;-142.59;100.00;56100.38;5076128;27;49582;-70
2022/06/07 09:02:41;;;;;;;;;0.50;0.50;;;;;-142.59;100.00;56100.38;5076191;27;50022;-68
2022/06/07 09:05:12;;;;;;;;;0.00;0.00;;;;;-142.59;100.00;56100.38;5076152;28;49924;-69
2022/06/07 09:07:37;;;;;;;;;0.50;0.50;;;;;-142.59;100.00;56100.38;5075730;28;51367;-67
2022/06/07 09:13:07;;;;;;;;;0.00;0.00;;;;;-142.59;100.00;56100.38;5096385;27;49988;-68
2022/06/07 09:15:35;;;;;;;;;1.50;1.00;;;;;-142.59;100.00;56100.38;5084012;27;49884;-70
2022/06/07 09:18:04;;;;;;;;;0.25;0.00;;;;;-142.59;100.00;56100.38;5075703;28;49730;-71
2022/06/07 09:21:16;;;;;;;;;0.00;0.00;;;;;-142.59;100.00;56100.38;5089357;27;49697;-70
2022/06/07 09:23:48;;;;;;;;;0.00;0.00;;;;;-142.59;100.00;56100.38;5003049;28;49880;-68
2022/06/07 09:26:27;;;;;;;;;0.75;0.00;;;;;-142.59;100.00;56100.38;5049893;28;49571;-71
2022/06/07 09:29:18;;;;;;;;;0.50;0.50;;;;;-142.59;100.00;56100.38;5055317;28;51463;-68
2022/06/07 09:31:45;;;;;;;;;1.00;1.00;;;;;-142.59;100.00;56100.38;5066010;27;49741;-70
2022/06/07 09:34:25;;;;;;;;;0.00;0.00;;;;;-142.59;100.00;56100.38;5096124;27;49706;-70
2022/06/07 09:36:57;;;;;;;;;1.75;1.75;;;;;-142.59;100.00;56100.38;5096094;27;49626;-70
2022/06/07 09:39:38;;;;;;;;;1.50;1.50;;;;;-142.59;100.00;56100.38;5077105;27;50385;-70
2022/06/07 09:42:26;;;;;;;;;2.00;1.00;;;;;-142.59;100.00;56100.38;5095802;27;49750;-72
2022/06/07 09:44:57;;;;;;;;;0.00;0.00;;;;;-142.59;100.00;56100.38;5095786;27;49596;-72
2022/06/07 09:47:28;;;;;;;;;1.00;1.00;;;;;-142.59;100.00;56100.38;5095847;27;49595;-71
2022/06/07 09:50:19;;;;;;;;;1.00;1.00;;;;;-142.59;100.00;56100.38;5078456;27;50700;-75
2022/06/07 09:52:52;;;;;;;;;1.00;1.00;;;;;-142.59;100.00;56100.38;5074137;27;49608;-71
2022/06/07 09:55:27;;;;;;;;;1.00;1.00;;;;;-142.59;100.00;56100.38;5075126;28;49648;-74
2022/06/07 09:58:17;;;;;;;;;1.00;1.00;;;;;-142.59;100.00;56100.38;5075103;28;50007;-70
2022/06/07 10:00:53;;;;;;;;;2.00;0.75;;;;;-142.59;100.00;56100.38;5085898;27;50690;-71
2022/06/07 10:03:25;;;;;;;;;2.50;2.00;;;;;-142.59;100.00;56100.38;5074828;27;49855;-72
2022/06/07 10:05:57;;;;;;;;;0.75;0.75;;;;;-142.59;100.00;56100.38;5086016;27;49705;-72
2022/06/07 10:08:41;;;;;;;;;1.00;1.00;;;;;-142.59;100.00;56100.38;5085107;27;50034;-69
2022/06/07 10:11:44;;;;;;;;;1.00;1.00;;;;;-142.59;100.00;56100.38;5088066;27;49798;-70
2022/06/07 10:14:13;;;;;;;;;0.50;0.50;;;;;-142.59;100.00;56100.38;5047151;28;49843;-68
2022/06/07 10:16:48;;;;;;;;;0.50;0.50;;;;;-142.59;100.00;56100.38;5057091;28;49609;-72
2022/06/07 10:19:35;;;;;;;;;1.00;0.50;;;;;-142.59;100.00;56100.38;5061432;28;49704;-71
2022/06/07 10:22:03;;;;;;;;;0.00;0.00;;;;;-142.59;100.00;56100.38;5074032;28;49665;-69
2022/06/07 10:24:48;;;;;;;;;1.00;1.00;;;;;-142.59;100.00;56100.38;5073578;27;49905;-69
2022/06/07 10:27:25;;;;;;;;;6.50;3.75;;;;;-142.59;100.00;56100.38;5073047;28;50997;-72
2022/06/07 10:30:01;;;;;;;;;1.50;1.00;;;;;-142.59;100.00;56100.38;5073524;27;49802;-72
2022/06/07 10:32:49;;;;;;;;;0.00;0.00;;;;;-142.59;100.00;56100.38;5073434;28;50600;-66
2022/06/07 10:35:46;;;;;;;;;1.50;1.50;;;;;-142.59;100.00;56100.38;5074129;28;49763;-77
2022/06/07 10:38:35;;;;;;;;;3.25;1.75;;;;;-142.59;100.00;56100.38;5073082;28;49869;-73
2022/06/07 10:41:34;;;;;;;;;1.75;1.75;;;;;-142.59;100.00;56100.38;5074450;27;49955;-75
2022/06/07 10:44:23;;;;;;;;;0.75;0.75;;;;;-142.59;100.00;56100.38;5074155;27;49839;-75
2022/06/07 10:46:49;;;;;;;;;0.00;0.00;;;;;-142.59;100.00;56100.38;5074299;27;49765;-74
2022/06/07 10:49:57;;;;;;;;;0.00;0.00;;;;;-142.59;100.00;56100.38;5074462;28;49714;-75
2022/06/07 10:52:32;;;;;;;;;0.25;0.25;;;;;-142.59;100.00;56100.38;5067252;27;49849;-73
2022/06/07 10:55:13;;;;;;;;;0.00;0.00;;;;;-142.59;100.00;56100.38;5087275;27;49799;-72
2022/06/07 10:58:04;;;;;;;;;1.75;1.00;;;;;-142.59;100.00;56100.38;5053960;28;49835;-73
2022/06/07 11:00:49;;;;;;;;;2.00;0.25;;;;;-142.59;100.00;56100.38;5068220;27;49718;-74
2022/06/07 11:03:28;;;;;;;;;0.00;0.00;;;;;-142.59;100.00;56100.38;5053844;28;49832;-81
2022/06/07 11:09:21;;;;;;;;;0.50;0.00;;;;;-142.59;100.00;56100.38;5053574;28;49781;-77
2022/06/07 11:11:52;;;;;;;;;0.00;0.00;;;;;-142.59;100.00;56100.38;5053836;28;49850;-74
2022/06/07 11:14:20;;;;;;;;;2.00;1.00;;;;;-142.59;100.00;56100.38;5053721;28;49812;-78
2022/06/07 11:17:00;;;;;;;;;0.50;0.00;;;;;-142.59;100.00;56100.38;5053358;28;49658;-76
2022/06/07 11:19:26;;;;;;;;;0.00;0.00;;;;;-142.59;100.00;56100.38;5073392;28;49898;-78
2022/06/07 11:21:57;;;;;;;;;1.00;0.00;;;;;-142.59;100.00;56100.38;5074109;27;49807;-81
2022/06/07 11:24:35;;;;;;;;;1.00;1.00;;;;;-142.59;100.00;56100.38;5074405;28;49774;-78
2022/06/07 11:27:14;;;;;;;;;0.50;0.50;;;;;-142.59;100.00;56100.38;5073743;27;50353;-76
2022/06/07 11:29:40;;;;;;;;;2.00;1.00;;;;;-142.59;100.00;56100.38;5073879;28;49729;-74
2022/06/07 11:32:55;;;;;;;;;1.50;0.75;;;;;-142.59;100.00;56100.38;5074112;28;49735;-77
2022/06/07 11:36:08;;;;;;;;;0.00;0.00;;;;;-142.59;100.00;56100.38;5074392;28;49637;-75
2022/06/07 11:38:53;;;;;;;;;1.50;0.25;;;;;-142.59;100.00;56100.38;5073718;28;50259;-76
2022/06/07 11:41:52;;;;;;;;;1.00;1.00;;;;;-142.59;100.00;56100.38;5073552;27;49935;-77
2022/06/07 11:44:32;;;;;;;;;2.00;1.00;;;;;-142.59;100.00;56100.38;5065506;27;49681;-78